MTV weather

Monterrey Airport
Teapa, Tabasco, Mexico

Public forecast

Using degrees Celsius for public forecast. Weather courtesy of forecast.io.

Closest aviation weather report (METAR) to Monterrey Airport

Report is more than 2 hours old.

Closest report is Carlos Rovirosa Pérez International Airport, 22.3 nm (41.3 km) NNE. Retrieved 2019/12/08 02:43 UTC (5 hours ago):

MMVA 080243Z 01004KT 7SM SCT200 24/24 A3014 RMK SLP204 52014 911 8/001

Closest aviation forecast (TAF) to Monterrey Airport

Closest forecast is Carlos Rovirosa Pérez International Airport, 22.3 nm (41.3 km) NNE. Retrieved 2019/12/08 06:19 UTC (1 hour ago):

TAF MMVA 080512Z 0806/0906 07004KT 6SM HZ SCT060 FM081000 00000KT 3SM BR SCT005 SCT060 TEMPO 0812/0815 1/2SM FG VV002 FM081800 09008KT P6SM SCT015 SCT070 BECMG 0903/0905 08005KT